sensor_id;sensor_type;location;lat;lon;timestamp;temperature;humidity
70366;DHT22;57787;48.216;12.396;2022-08-18T00:01:04;22.40;56.90
70366;DHT22;57787;48.216;12.396;2022-08-18T00:03:31;22.40;57.30
70366;DHT22;57787;48.216;12.396;2022-08-18T00:06:18;22.40;57.20
70366;DHT22;57787;48.216;12.396;2022-08-18T00:08:44;22.40;58.50
70366;DHT22;57787;48.216;12.396;2022-08-18T00:11:13;22.40;57.70
70366;DHT22;57787;48.216;12.396;2022-08-18T00:13:40;22.50;58.00
70366;DHT22;57787;48.216;12.396;2022-08-18T00:16:07;22.50;59.20
70366;DHT22;57787;48.216;12.396;2022-08-18T00:18:34;22.50;60.60
70366;DHT22;57787;48.216;12.396;2022-08-18T00:21:00;22.50;61.60
70366;DHT22;57787;48.216;12.396;2022-08-18T00:23:27;22.30;64.00
70366;DHT22;57787;48.216;12.396;2022-08-18T00:25:56;22.30;65.70
70366;DHT22;57787;48.216;12.396;2022-08-18T00:28:25;22.00;67.10
70366;DHT22;57787;48.216;12.396;2022-08-18T00:30:51;21.80;68.50
70366;DHT22;57787;48.216;12.396;2022-08-18T00:33:20;21.60;69.40
70366;DHT22;57787;48.216;12.396;2022-08-18T00:35:46;21.50;70.10
70366;DHT22;57787;48.216;12.396;2022-08-18T00:38:13;21.30;71.70
70366;DHT22;57787;48.216;12.396;2022-08-18T00:40:52;21.20;71.80
70366;DHT22;57787;48.216;12.396;2022-08-18T00:43:23;21.10;72.70
70366;DHT22;57787;48.216;12.396;2022-08-18T00:45:52;21.00;72.80
70366;DHT22;57787;48.216;12.396;2022-08-18T00:48:19;20.90;73.10
70366;DHT22;57787;48.216;12.396;2022-08-18T00:50:56;20.80;73.60
70366;DHT22;57787;48.216;12.396;2022-08-18T00:53:26;20.80;73.40
70366;DHT22;57787;48.216;12.396;2022-08-18T00:55:55;20.70;73.70
70366;DHT22;57787;48.216;12.396;2022-08-18T00:58:26;20.60;73.90
70366;DHT22;57787;48.216;12.396;2022-08-18T01:00:55;20.60;74.30
70366;DHT22;57787;48.216;12.396;2022-08-18T01:03:22;20.50;74.10
70366;DHT22;57787;48.216;12.396;2022-08-18T01:06:04;20.40;74.10
70366;DHT22;57787;48.216;12.396;2022-08-18T01:08:32;20.40;74.50
70366;DHT22;57787;48.216;12.396;2022-08-18T01:10:59;20.30;74.50
70366;DHT22;57787;48.216;12.396;2022-08-18T01:13:28;20.30;75.00
70366;DHT22;57787;48.216;12.396;2022-08-18T01:15:56;20.30;75.10
70366;DHT22;57787;48.216;12.396;2022-08-18T01:18:23;20.20;74.80
70366;DHT22;57787;48.216;12.396;2022-08-18T01:21:13;20.10;75.20
70366;DHT22;57787;48.216;12.396;2022-08-18T01:24:00;20.10;75.30
70366;DHT22;57787;48.216;12.396;2022-08-18T01:26:28;20.10;75.50
70366;DHT22;57787;48.216;12.396;2022-08-18T01:29:02;20.00;75.60
70366;DHT22;57787;48.216;12.396;2022-08-18T01:31:40;20.00;76.10
70366;DHT22;57787;48.216;12.396;2022-08-18T01:34:22;19.90;76.30
70366;DHT22;57787;48.216;12.396;2022-08-18T01:36:50;19.80;76.70
70366;DHT22;57787;48.216;12.396;2022-08-18T01:39:20;19.80;76.40
70366;DHT22;57787;48.216;12.396;2022-08-18T01:42:07;19.70;77.20
70366;DHT22;57787;48.216;12.396;2022-08-18T01:44:34;19.70;77.40
70366;DHT22;57787;48.216;12.396;2022-08-18T01:47:02;19.70;77.70
70366;DHT22;57787;48.216;12.396;2022-08-18T01:49:28;19.70;78.10
70366;DHT22;57787;48.216;12.396;2022-08-18T01:51:55;19.60;78.20
70366;DHT22;57787;48.216;12.396;2022-08-18T01:54:22;19.60;78.50
70366;DHT22;57787;48.216;12.396;2022-08-18T01:56:48;19.60;78.10
70366;DHT22;57787;48.216;12.396;2022-08-18T01:59:18;19.60;78.90
70366;DHT22;57787;48.216;12.396;2022-08-18T02:01:45;19.50;79.20
70366;DHT22;57787;48.216;12.396;2022-08-18T02:04:19;19.50;79.10
70366;DHT22;57787;48.216;12.396;2022-08-18T02:07:03;19.50;78.80
70366;DHT22;57787;48.216;12.396;2022-08-18T02:09:30;19.40;79.60
70366;DHT22;57787;48.216;12.396;2022-08-18T02:11:57;19.30;79.90
70366;DHT22;57787;48.216;12.396;2022-08-18T02:14:23;19.30;80.10
70366;DHT22;57787;48.216;12.396;2022-08-18T02:16:57;19.30;80.20
70366;DHT22;57787;48.216;12.396;2022-08-18T02:19:35;19.30;80.70
70366;DHT22;57787;48.216;12.396;2022-08-18T02:22:04;19.30;80.70
70366;DHT22;57787;48.216;12.396;2022-08-18T02:24:31;19.20;80.60
70366;DHT22;57787;48.216;12.396;2022-08-18T02:26:58;19.20;80.50
70366;DHT22;57787;48.216;12.396;2022-08-18T02:29:25;19.20;79.60
70366;DHT22;57787;48.216;12.396;2022-08-18T02:31:52;19.00;80.40
70366;DHT22;57787;48.216;12.396;2022-08-18T02:34:18;19.00;80.80
70366;DHT22;57787;48.216;12.396;2022-08-18T02:36:45;18.90;80.50
70366;DHT22;57787;48.216;12.396;2022-08-18T02:39:12;18.90;81.10
70366;DHT22;57787;48.216;12.396;2022-08-18T02:41:39;18.80;82.20
70366;DHT22;57787;48.216;12.396;2022-08-18T02:44:06;18.80;82.00
70366;DHT22;57787;48.216;12.396;2022-08-18T02:46:33;18.80;81.90
70366;DHT22;57787;48.216;12.396;2022-08-18T02:49:00;18.80;82.70
70366;DHT22;57787;48.216;12.396;2022-08-18T02:51:27;18.80;82.60
70366;DHT22;57787;48.216;12.396;2022-08-18T02:53:54;18.80;82.70
70366;DHT22;57787;48.216;12.396;2022-08-18T02:56:25;18.80;82.50
70366;DHT22;57787;48.216;12.396;2022-08-18T02:59:12;18.80;82.60
70366;DHT22;57787;48.216;12.396;2022-08-18T03:01:40;18.70;82.00
70366;DHT22;57787;48.216;12.396;2022-08-18T03:04:08;18.70;82.20
70366;DHT22;57787;48.216;12.396;2022-08-18T03:06:35;18.60;82.00
70366;DHT22;57787;48.216;12.396;2022-08-18T03:09:03;18.60;81.60
70366;DHT22;57787;48.216;12.396;2022-08-18T03:11:30;18.50;82.00
70366;DHT22;57787;48.216;12.396;2022-08-18T03:13:57;18.40;82.50
70366;DHT22;57787;48.216;12.396;2022-08-18T03:16:26;18.40;82.50
70366;DHT22;57787;48.216;12.396;2022-08-18T03:18:52;18.30;82.80
70366;DHT22;57787;48.216;12.396;2022-08-18T03:21:20;18.30;82.70
70366;DHT22;57787;48.216;12.396;2022-08-18T03:23:49;18.20;82.90
70366;DHT22;57787;48.216;12.396;2022-08-18T03:26:27;18.10;83.30
70366;DHT22;57787;48.216;12.396;2022-08-18T03:28:56;18.10;83.00
70366;DHT22;57787;48.216;12.396;2022-08-18T03:31:23;18.10;82.80
70366;DHT22;57787;48.216;12.396;2022-08-18T03:33:54;18.00;83.10
70366;DHT22;57787;48.216;12.396;2022-08-18T03:36:26;18.00;83.20
70366;DHT22;57787;48.216;12.396;2022-08-18T03:38:53;17.90;82.40
70366;DHT22;57787;48.216;12.396;2022-08-18T03:41:21;17.90;82.30
70366;DHT22;57787;48.216;12.396;2022-08-18T03:44:09;17.80;82.70
70366;DHT22;57787;48.216;12.396;2022-08-18T03:46:36;17.80;83.30
70366;DHT22;57787;48.216;12.396;2022-08-18T03:49:03;17.70;83.40
70366;DHT22;57787;48.216;12.396;2022-08-18T03:51:30;17.70;83.40
70366;DHT22;57787;48.216;12.396;2022-08-18T03:53:59;17.60;83.00
70366;DHT22;57787;48.216;12.396;2022-08-18T03:56:30;17.60;83.20
70366;DHT22;57787;48.216;12.396;2022-08-18T03:59:00;17.50;83.50
70366;DHT22;57787;48.216;12.396;2022-08-18T04:01:29;17.50;83.80
70366;DHT22;57787;48.216;12.396;2022-08-18T04:03:57;17.40;83.60
70366;DHT22;57787;48.216;12.396;2022-08-18T04:06:34;17.40;83.00
70366;DHT22;57787;48.216;12.396;2022-08-18T04:09:02;17.30;83.60
70366;DHT22;57787;48.216;12.396;2022-08-18T04:11:32;17.30;83.90
70366;DHT22;57787;48.216;12.396;2022-08-18T04:14:03;17.30;83.70
70366;DHT22;57787;48.216;12.396;2022-08-18T04:16:30;17.30;83.30
70366;DHT22;57787;48.216;12.396;2022-08-18T04:18:58;17.30;84.10
70366;DHT22;57787;48.216;12.396;2022-08-18T04:21:32;17.20;84.70
70366;DHT22;57787;48.216;12.396;2022-08-18T04:23:59;17.20;85.10
70366;DHT22;57787;48.216;12.396;2022-08-18T04:26:31;17.20;84.40
70366;DHT22;57787;48.216;12.396;2022-08-18T04:28:58;17.20;84.70
70366;DHT22;57787;48.216;12.396;2022-08-18T04:31:28;17.20;85.10
70366;DHT22;57787;48.216;12.396;2022-08-18T04:33:57;17.20;85.10
70366;DHT22;57787;48.216;12.396;2022-08-18T04:36:24;17.20;85.20
70366;DHT22;57787;48.216;12.396;2022-08-18T04:38:51;17.30;85.60
70366;DHT22;57787;48.216;12.396;2022-08-18T04:41:21;17.30;85.30
70366;DHT22;57787;48.216;12.396;2022-08-18T04:43:58;17.30;85.40
70366;DHT22;57787;48.216;12.396;2022-08-18T04:46:26;17.30;85.40
70366;DHT22;57787;48.216;12.396;2022-08-18T04:48:53;17.40;85.40
70366;DHT22;57787;48.216;12.396;2022-08-18T04:51:26;17.50;85.60
70366;DHT22;57787;48.216;12.396;2022-08-18T04:54:13;17.50;85.40
70366;DHT22;57787;48.216;12.396;2022-08-18T04:56:41;17.60;85.30
70366;DHT22;57787;48.216;12.396;2022-08-18T04:59:12;17.60;84.80
70366;DHT22;57787;48.216;12.396;2022-08-18T05:01:42;17.70;85.10
70366;DHT22;57787;48.216;12.396;2022-08-18T05:04:11;17.70;85.20
70366;DHT22;57787;48.216;12.396;2022-08-18T05:06:39;17.80;85.10
70366;DHT22;57787;48.216;12.396;2022-08-18T05:09:07;17.80;85.10
70366;DHT22;57787;48.216;12.396;2022-08-18T05:11:34;17.90;85.10
70366;DHT22;57787;48.216;12.396;2022-08-18T05:14:02;18.00;85.10
70366;DHT22;57787;48.216;12.396;2022-08-18T05:16:29;18.10;85.10
70366;DHT22;57787;48.216;12.396;2022-08-18T05:19:14;18.20;85.10
70366;DHT22;57787;48.216;12.396;2022-08-18T05:21:44;18.30;84.90
70366;DHT22;57787;48.216;12.396;2022-08-18T05:24:16;18.50;84.80
70366;DHT22;57787;48.216;12.396;2022-08-18T05:26:43;18.60;84.70
70366;DHT22;57787;48.216;12.396;2022-08-18T05:29:10;18.70;84.10
70366;DHT22;57787;48.216;12.396;2022-08-18T05:31:45;18.80;84.00
70366;DHT22;57787;48.216;12.396;2022-08-18T05:34:12;18.90;83.50
70366;DHT22;57787;48.216;12.396;2022-08-18T05:41:41;19.30;82.50
70366;DHT22;57787;48.216;12.396;2022-08-18T05:44:11;19.40;81.90
70366;DHT22;57787;48.216;12.396;2022-08-18T05:46:46;19.50;81.00
70366;DHT22;57787;48.216;12.396;2022-08-18T05:49:15;19.60;80.70
70366;DHT22;57787;48.216;12.396;2022-08-18T05:51:45;19.70;80.80
70366;DHT22;57787;48.216;12.396;2022-08-18T05:54:13;20.00;80.10
70366;DHT22;57787;48.216;12.396;2022-08-18T05:57:10;20.30;79.10
70366;DHT22;57787;48.216;12.396;2022-08-18T05:59:39;20.50;78.50
70366;DHT22;57787;48.216;12.396;2022-08-18T06:04:53;20.90;77.10
70366;DHT22;57787;48.216;12.396;2022-08-18T06:07:27;21.10;76.50
70366;DHT22;57787;48.216;12.396;2022-08-18T06:09:59;21.30;75.90
70366;DHT22;57787;48.216;12.396;2022-08-18T06:12:31;21.60;75.40
70366;DHT22;57787;48.216;12.396;2022-08-18T06:15:15;21.80;73.60
70366;DHT22;57787;48.216;12.396;2022-08-18T06:17:46;22.00;73.00
70366;DHT22;57787;48.216;12.396;2022-08-18T06:22:53;22.30;71.40
70366;DHT22;57787;48.216;12.396;2022-08-18T06:25:24;22.40;71.10
70366;DHT22;57787;48.216;12.396;2022-08-18T06:33:29;22.80;70.50
70366;DHT22;57787;48.216;12.396;2022-08-18T06:36:05;22.90;69.90
70366;DHT22;57787;48.216;12.396;2022-08-18T06:44:16;23.00;68.60
70366;DHT22;57787;48.216;12.396;2022-08-18T06:46:46;23.10;67.10
70366;DHT22;57787;48.216;12.396;2022-08-18T06:49:30;23.20;67.60
70366;DHT22;57787;48.216;12.396;2022-08-18T06:51:58;23.10;66.90
70366;DHT22;57787;48.216;12.396;2022-08-18T06:54:26;23.10;66.90
70366;DHT22;57787;48.216;12.396;2022-08-18T06:56:54;23.00;67.30
70366;DHT22;57787;48.216;12.396;2022-08-18T06:59:23;23.00;67.40
70366;DHT22;57787;48.216;12.396;2022-08-18T07:01:51;22.90;68.20
70366;DHT22;57787;48.216;12.396;2022-08-18T07:04:38;22.90;67.90
70366;DHT22;57787;48.216;12.396;2022-08-18T07:07:19;22.80;68.50
70366;DHT22;57787;48.216;12.396;2022-08-18T07:12:41;22.60;68.80
70366;DHT22;57787;48.216;12.396;2022-08-18T07:15:09;22.40;69.30
70366;DHT22;57787;48.216;12.396;2022-08-18T07:17:37;22.30;70.20
70366;DHT22;57787;48.216;12.396;2022-08-18T07:20:22;22.30;70.60
70366;DHT22;57787;48.216;12.396;2022-08-18T07:22:55;22.30;71.00
70366;DHT22;57787;48.216;12.396;2022-08-18T07:25:46;22.30;71.40
70366;DHT22;57787;48.216;12.396;2022-08-18T07:28:26;22.30;71.30
70366;DHT22;57787;48.216;12.396;2022-08-18T07:30:52;22.40;70.80
70366;DHT22;57787;48.216;12.396;2022-08-18T07:33:45;22.30;70.70
70366;DHT22;57787;48.216;12.396;2022-08-18T07:36:13;22.40;71.00
70366;DHT22;57787;48.216;12.396;2022-08-18T07:41:21;22.50;71.00
70366;DHT22;57787;48.216;12.396;2022-08-18T07:49:00;22.80;68.90
70366;DHT22;57787;48.216;12.396;2022-08-18T07:54:10;22.90;69.70
70366;DHT22;57787;48.216;12.396;2022-08-18T07:57:09;23.00;68.60
70366;DHT22;57787;48.216;12.396;2022-08-18T08:04:51;23.50;67.50
70366;DHT22;57787;48.216;12.396;2022-08-18T08:07:25;23.50;67.00
70366;DHT22;57787;48.216;12.396;2022-08-18T08:10:11;23.60;67.40
70366;DHT22;57787;48.216;12.396;2022-08-18T08:12:50;23.60;67.10
70366;DHT22;57787;48.216;12.396;2022-08-18T08:15:38;23.80;66.40
70366;DHT22;57787;48.216;12.396;2022-08-18T08:18:17;23.80;66.00
70366;DHT22;57787;48.216;12.396;2022-08-18T08:20:48;23.80;66.10
70366;DHT22;57787;48.216;12.396;2022-08-18T08:23:34;24.00;66.10
70366;DHT22;57787;48.216;12.396;2022-08-18T08:26:26;24.20;65.40
70366;DHT22;57787;48.216;12.396;2022-08-18T08:31:28;24.30;65.00
70366;DHT22;57787;48.216;12.396;2022-08-18T08:36:48;24.30;64.60
70366;DHT22;57787;48.216;12.396;2022-08-18T08:41:55;24.50;64.80
70366;DHT22;57787;48.216;12.396;2022-08-18T08:47:27;24.60;64.40
70366;DHT22;57787;48.216;12.396;2022-08-18T08:50:03;24.60;62.60
70366;DHT22;57787;48.216;12.396;2022-08-18T08:55:36;24.50;63.70
70366;DHT22;57787;48.216;12.396;2022-08-18T08:58:23;24.50;63.50
70366;DHT22;57787;48.216;12.396;2022-08-18T09:00:52;24.60;63.00
70366;DHT22;57787;48.216;12.396;2022-08-18T09:06:00;24.90;62.60
70366;DHT22;57787;48.216;12.396;2022-08-18T09:11:19;25.20;61.10
70366;DHT22;57787;48.216;12.396;2022-08-18T09:13:53;25.40;60.60
70366;DHT22;57787;48.216;12.396;2022-08-18T09:21:49;25.90;58.60
70366;DHT22;57787;48.216;12.396;2022-08-18T09:24:22;26.10;57.50
70366;DHT22;57787;48.216;12.396;2022-08-18T09:27:10;26.20;57.90
70366;DHT22;57787;48.216;12.396;2022-08-18T09:29:46;26.20;57.80
70366;DHT22;57787;48.216;12.396;2022-08-18T09:37:24;26.60;55.40
70366;DHT22;57787;48.216;12.396;2022-08-18T09:39:56;26.80;56.00
70366;DHT22;57787;48.216;12.396;2022-08-18T09:42:49;26.80;55.80
70366;DHT22;57787;48.216;12.396;2022-08-18T09:53:37;26.90;56.00
70366;DHT22;57787;48.216;12.396;2022-08-18T10:02:59;27.10;53.30
70366;DHT22;57787;48.216;12.396;2022-08-18T10:10:24;27.00;55.70
70366;DHT22;57787;48.216;12.396;2022-08-18T10:28:58;27.40;52.10
70366;DHT22;57787;48.216;12.396;2022-08-18T10:31:26;27.30;51.40
70366;DHT22;57787;48.216;12.396;2022-08-18T10:33:58;27.30;51.90
70366;DHT22;57787;48.216;12.396;2022-08-18T10:39:15;27.60;52.90
70366;DHT22;57787;48.216;12.396;2022-08-18T10:41:55;27.70;50.80
70366;DHT22;57787;48.216;12.396;2022-08-18T10:44:23;27.90;50.80
70366;DHT22;57787;48.216;12.396;2022-08-18T10:46:57;27.90;49.60
70366;DHT22;57787;48.216;12.396;2022-08-18T10:49:25;27.70;50.80
70366;DHT22;57787;48.216;12.396;2022-08-18T10:52:11;27.80;51.20
70366;DHT22;57787;48.216;12.396;2022-08-18T11:00:05;28.30;48.50
70366;DHT22;57787;48.216;12.396;2022-08-18T11:05:06;28.50;46.70
70366;DHT22;57787;48.216;12.396;2022-08-18T11:07:34;28.40;45.70
70366;DHT22;57787;48.216;12.396;2022-08-18T11:10:15;28.30;46.00
70366;DHT22;57787;48.216;12.396;2022-08-18T11:13:09;28.20;46.60
70366;DHT22;57787;48.216;12.396;2022-08-18T11:15:49;28.10;47.50
70366;DHT22;57787;48.216;12.396;2022-08-18T11:24:03;28.40;49.00
70366;DHT22;57787;48.216;12.396;2022-08-18T11:26:31;28.70;48.30
70366;DHT22;57787;48.216;12.396;2022-08-18T11:29:00;28.80;47.40
70366;DHT22;57787;48.216;12.396;2022-08-18T11:31:39;29.00;47.40
70366;DHT22;57787;48.216;12.396;2022-08-18T11:34:10;28.90;46.90
70366;DHT22;57787;48.216;12.396;2022-08-18T11:36:53;29.00;46.30
70366;DHT22;57787;48.216;12.396;2022-08-18T11:39:22;28.90;46.80
70366;DHT22;57787;48.216;12.396;2022-08-18T11:42:03;29.00;48.20
70366;DHT22;57787;48.216;12.396;2022-08-18T11:44:41;29.00;46.10
70366;DHT22;57787;48.216;12.396;2022-08-18T11:47:15;29.10;47.70
70366;DHT22;57787;48.216;12.396;2022-08-18T11:49:44;29.20;46.30
70366;DHT22;57787;48.216;12.396;2022-08-18T11:52:26;29.30;45.60
70366;DHT22;57787;48.216;12.396;2022-08-18T11:55:02;29.50;45.50
70366;DHT22;57787;48.216;12.396;2022-08-18T11:57:50;29.80;45.90
70366;DHT22;57787;48.216;12.396;2022-08-18T12:00:41;29.80;45.10
70366;DHT22;57787;48.216;12.396;2022-08-18T12:05:43;29.80;44.70
70366;DHT22;57787;48.216;12.396;2022-08-18T12:08:33;29.80;45.20
70366;DHT22;57787;48.216;12.396;2022-08-18T12:11:25;29.70;44.60
70366;DHT22;57787;48.216;12.396;2022-08-18T12:14:00;29.60;46.50
70366;DHT22;57787;48.216;12.396;2022-08-18T12:16:48;29.40;45.30
70366;DHT22;57787;48.216;12.396;2022-08-18T12:19:16;29.20;46.10
70366;DHT22;57787;48.216;12.396;2022-08-18T12:21:52;29.30;46.10
70366;DHT22;57787;48.216;12.396;2022-08-18T12:24:21;29.60;45.90
70366;DHT22;57787;48.216;12.396;2022-08-18T12:26:54;29.80;45.30
70366;DHT22;57787;48.216;12.396;2022-08-18T12:29:21;29.90;45.60
70366;DHT22;57787;48.216;12.396;2022-08-18T12:31:54;30.10;44.30
70366;DHT22;57787;48.216;12.396;2022-08-18T12:34:22;30.10;44.60
70366;DHT22;57787;48.216;12.396;2022-08-18T12:37:09;30.10;43.60
70366;DHT22;57787;48.216;12.396;2022-08-18T12:39:56;30.20;43.20
70366;DHT22;57787;48.216;12.396;2022-08-18T12:42:25;30.30;44.00
70366;DHT22;57787;48.216;12.396;2022-08-18T12:44:52;30.20;41.70
70366;DHT22;57787;48.216;12.396;2022-08-18T12:47:23;30.40;42.60
70366;DHT22;57787;48.216;12.396;2022-08-18T12:49:56;30.40;44.00
70366;DHT22;57787;48.216;12.396;2022-08-18T12:52:23;30.40;42.40
70366;DHT22;57787;48.216;12.396;2022-08-18T12:54:50;30.40;43.10
70366;DHT22;57787;48.216;12.396;2022-08-18T12:57:22;30.50;43.20
70366;DHT22;57787;48.216;12.396;2022-08-18T13:00:09;30.60;42.70
70366;DHT22;57787;48.216;12.396;2022-08-18T13:02:44;30.50;41.80
70366;DHT22;57787;48.216;12.396;2022-08-18T13:05:10;30.40;41.80
70366;DHT22;57787;48.216;12.396;2022-08-18T13:07:37;30.40;41.50
70366;DHT22;57787;48.216;12.396;2022-08-18T13:10:05;30.30;42.60
70366;DHT22;57787;48.216;12.396;2022-08-18T13:12:32;30.30;42.10
70366;DHT22;57787;48.216;12.396;2022-08-18T13:14:59;30.20;41.90
70366;DHT22;57787;48.216;12.396;2022-08-18T13:17:26;30.00;42.30
70366;DHT22;57787;48.216;12.396;2022-08-18T13:20:10;29.90;43.60
70366;DHT22;57787;48.216;12.396;2022-08-18T13:22:39;29.80;41.50
70366;DHT22;57787;48.216;12.396;2022-08-18T13:25:07;29.90;42.00
70366;DHT22;57787;48.216;12.396;2022-08-18T13:27:34;29.90;42.10
70366;DHT22;57787;48.216;12.396;2022-08-18T13:30:07;29.90;41.90
70366;DHT22;57787;48.216;12.396;2022-08-18T13:32:55;29.90;43.30
70366;DHT22;57787;48.216;12.396;2022-08-18T13:35:25;29.80;41.50
70366;DHT22;57787;48.216;12.396;2022-08-18T13:38:01;29.80;43.00
70366;DHT22;57787;48.216;12.396;2022-08-18T13:40:55;29.80;42.60
70366;DHT22;57787;48.216;12.396;2022-08-18T13:43:25;29.60;42.60
70366;DHT22;57787;48.216;12.396;2022-08-18T13:45:52;29.60;43.10
70366;DHT22;57787;48.216;12.396;2022-08-18T13:48:22;29.50;42.90
70366;DHT22;57787;48.216;12.396;2022-08-18T13:50:51;29.50;42.90
70366;DHT22;57787;48.216;12.396;2022-08-18T13:53:21;29.40;43.40
70366;DHT22;57787;48.216;12.396;2022-08-18T13:55:50;29.40;43.80
70366;DHT22;57787;48.216;12.396;2022-08-18T13:58:17;29.30;43.50
70366;DHT22;57787;48.216;12.396;2022-08-18T14:00:47;29.30;44.00
70366;DHT22;57787;48.216;12.396;2022-08-18T14:03:17;29.30;45.20
70366;DHT22;57787;48.216;12.396;2022-08-18T14:05:56;29.30;44.50
70366;DHT22;57787;48.216;12.396;2022-08-18T14:08:28;29.30;43.50
70366;DHT22;57787;48.216;12.396;2022-08-18T14:10:56;29.30;44.70
70366;DHT22;57787;48.216;12.396;2022-08-18T14:13:24;29.30;44.00
70366;DHT22;57787;48.216;12.396;2022-08-18T14:15:55;29.30;43.90
70366;DHT22;57787;48.216;12.396;2022-08-18T14:18:23;29.40;44.10
70366;DHT22;57787;48.216;12.396;2022-08-18T14:20:56;29.40;45.70
70366;DHT22;57787;48.216;12.396;2022-08-18T14:24:04;29.40;43.40
70366;DHT22;57787;48.216;12.396;2022-08-18T14:26:50;29.40;43.50
70366;DHT22;57787;48.216;12.396;2022-08-18T14:29:18;29.50;44.60
70366;DHT22;57787;48.216;12.396;2022-08-18T14:32:05;29.50;44.70
70366;DHT22;57787;48.216;12.396;2022-08-18T14:34:32;29.50;43.10
70366;DHT22;57787;48.216;12.396;2022-08-18T14:36:59;29.40;43.70
70366;DHT22;57787;48.216;12.396;2022-08-18T14:39:27;29.30;43.70
70366;DHT22;57787;48.216;12.396;2022-08-18T14:41:54;29.30;43.40
70366;DHT22;57787;48.216;12.396;2022-08-18T14:44:22;29.30;44.80
70366;DHT22;57787;48.216;12.396;2022-08-18T14:46:57;29.40;44.20
70366;DHT22;57787;48.216;12.396;2022-08-18T14:49:24;29.40;44.00
70366;DHT22;57787;48.216;12.396;2022-08-18T14:51:58;29.40;43.50
70366;DHT22;57787;48.216;12.396;2022-08-18T14:54:26;29.40;43.90
70366;DHT22;57787;48.216;12.396;2022-08-18T14:56:56;29.40;43.20
70366;DHT22;57787;48.216;12.396;2022-08-18T14:59:23;29.40;43.50
70366;DHT22;57787;48.216;12.396;2022-08-18T15:01:51;29.40;44.20
70366;DHT22;57787;48.216;12.396;2022-08-18T15:04:19;29.40;43.90
70366;DHT22;57787;48.216;12.396;2022-08-18T15:06:47;29.30;43.60
70366;DHT22;57787;48.216;12.396;2022-08-18T15:09:21;29.40;43.60
70366;DHT22;57787;48.216;12.396;2022-08-18T15:11:49;29.30;43.50
70366;DHT22;57787;48.216;12.396;2022-08-18T15:14:17;29.30;44.30
70366;DHT22;57787;48.216;12.396;2022-08-18T15:16:45;29.20;44.20
70366;DHT22;57787;48.216;12.396;2022-08-18T15:19:14;29.10;44.00
70366;DHT22;57787;48.216;12.396;2022-08-18T15:22:00;29.00;44.10
70366;DHT22;57787;48.216;12.396;2022-08-18T15:24:46;28.80;44.90
70366;DHT22;57787;48.216;12.396;2022-08-18T15:27:33;28.70;45.00
70366;DHT22;57787;48.216;12.396;2022-08-18T15:30:10;28.70;45.20
70366;DHT22;57787;48.216;12.396;2022-08-18T15:32:45;28.60;45.40
70366;DHT22;57787;48.216;12.396;2022-08-18T15:35:15;28.60;45.20
70366;DHT22;57787;48.216;12.396;2022-08-18T15:37:43;28.60;45.80
70366;DHT22;57787;48.216;12.396;2022-08-18T15:40:15;28.60;45.80
70366;DHT22;57787;48.216;12.396;2022-08-18T15:43:04;28.60;45.70
70366;DHT22;57787;48.216;12.396;2022-08-18T15:45:36;28.50;46.50
70366;DHT22;57787;48.216;12.396;2022-08-18T15:48:22;28.50;45.90
70366;DHT22;57787;48.216;12.396;2022-08-18T15:50:49;28.40;47.00
70366;DHT22;57787;48.216;12.396;2022-08-18T15:53:21;28.40;47.10
70366;DHT22;57787;48.216;12.396;2022-08-18T15:55:48;28.30;47.30
70366;DHT22;57787;48.216;12.396;2022-08-18T15:58:16;28.30;48.30
70366;DHT22;57787;48.216;12.396;2022-08-18T16:00:48;28.30;47.90
70366;DHT22;57787;48.216;12.396;2022-08-18T16:03:16;28.30;48.00
70366;DHT22;57787;48.216;12.396;2022-08-18T16:05:47;28.30;48.20
70366;DHT22;57787;48.216;12.396;2022-08-18T16:08:19;28.20;50.10
70366;DHT22;57787;48.216;12.396;2022-08-18T16:10:46;28.20;49.40
70366;DHT22;57787;48.216;12.396;2022-08-18T16:13:13;28.10;48.90
70366;DHT22;57787;48.216;12.396;2022-08-18T16:15:40;28.10;48.90
70366;DHT22;57787;48.216;12.396;2022-08-18T16:18:09;28.10;49.20
70366;DHT22;57787;48.216;12.396;2022-08-18T16:20:36;28.10;49.10
70366;DHT22;57787;48.216;12.396;2022-08-18T16:23:03;28.10;49.70
70366;DHT22;57787;48.216;12.396;2022-08-18T16:25:30;28.10;49.20
70366;DHT22;57787;48.216;12.396;2022-08-18T16:27:58;28.10;49.10
70366;DHT22;57787;48.216;12.396;2022-08-18T16:30:25;28.10;50.10
70366;DHT22;57787;48.216;12.396;2022-08-18T16:32:52;28.10;49.80
70366;DHT22;57787;48.216;12.396;2022-08-18T16:35:20;28.00;50.20
70366;DHT22;57787;48.216;12.396;2022-08-18T16:37:47;28.10;49.90
70366;DHT22;57787;48.216;12.396;2022-08-18T16:40:15;28.10;51.40
70366;DHT22;57787;48.216;12.396;2022-08-18T16:42:42;28.10;51.00
70366;DHT22;57787;48.216;12.396;2022-08-18T16:45:09;28.00;51.80
70366;DHT22;57787;48.216;12.396;2022-08-18T16:47:38;28.00;49.90
70366;DHT22;57787;48.216;12.396;2022-08-18T16:50:07;28.00;50.00
70366;DHT22;57787;48.216;12.396;2022-08-18T16:52:34;28.00;49.60
70366;DHT22;57787;48.216;12.396;2022-08-18T16:55:02;28.00;51.80
70366;DHT22;57787;48.216;12.396;2022-08-18T16:57:29;27.90;49.80
70366;DHT22;57787;48.216;12.396;2022-08-18T17:00:21;27.80;51.30
70366;DHT22;57787;48.216;12.396;2022-08-18T17:03:07;27.80;51.50
70366;DHT22;57787;48.216;12.396;2022-08-18T17:06:06;27.70;51.30
70366;DHT22;57787;48.216;12.396;2022-08-18T17:08:33;27.60;51.60
70366;DHT22;57787;48.216;12.396;2022-08-18T17:11:01;27.50;52.20
70366;DHT22;57787;48.216;12.396;2022-08-18T17:13:28;27.40;53.50
70366;DHT22;57787;48.216;12.396;2022-08-18T17:15:56;27.30;52.90
70366;DHT22;57787;48.216;12.396;2022-08-18T17:18:23;27.20;54.00
70366;DHT22;57787;48.216;12.396;2022-08-18T17:20:50;27.00;54.70
70366;DHT22;57787;48.216;12.396;2022-08-18T17:23:21;26.90;55.80
70366;DHT22;57787;48.216;12.396;2022-08-18T17:25:48;26.80;56.00
70366;DHT22;57787;48.216;12.396;2022-08-18T17:28:16;26.60;57.00
70366;DHT22;57787;48.216;12.396;2022-08-18T17:30:48;26.50;56.40
70366;DHT22;57787;48.216;12.396;2022-08-18T17:33:26;26.40;57.00
70366;DHT22;57787;48.216;12.396;2022-08-18T17:35:53;26.30;56.80
70366;DHT22;57787;48.216;12.396;2022-08-18T17:38:29;26.10;57.70
70366;DHT22;57787;48.216;12.396;2022-08-18T17:40:58;25.90;58.00
70366;DHT22;57787;48.216;12.396;2022-08-18T17:43:34;25.80;58.20
70366;DHT22;57787;48.216;12.396;2022-08-18T17:48:31;25.50;59.20
70366;DHT22;57787;48.216;12.396;2022-08-18T17:51:02;25.40;59.70
70366;DHT22;57787;48.216;12.396;2022-08-18T17:53:48;25.30;59.50